createdAt,value
2023-05-22T00:00:16.740Z,12.03
2023-05-22T00:02:43.987Z,12.49
2023-05-22T00:05:14.913Z,12.46
2023-05-22T00:07:43.269Z,12.12
2023-05-22T00:10:10.915Z,12.37
2023-05-22T00:12:38.057Z,11.84
2023-05-22T00:15:06.095Z,12.06
2023-05-22T00:17:34.249Z,12.30
2023-05-22T00:20:07.331Z,12.32
2023-05-22T00:22:37.828Z,12.03
2023-05-22T00:25:05.593Z,11.89
2023-05-22T00:27:33.532Z,11.53
2023-05-22T00:30:01.157Z,12.10
2023-05-22T00:32:28.111Z,11.92
2023-05-22T00:34:55.011Z,12.03
2023-05-22T00:37:21.825Z,11.99
2023-05-22T00:39:49.149Z,11.78
2023-05-22T00:42:16.017Z,11.77
2023-05-22T00:44:42.954Z,11.50
2023-05-22T00:47:10.193Z,11.46
2023-05-22T00:49:37.025Z,11.74
2023-05-22T00:52:04.093Z,11.09
2023-05-22T00:54:32.068Z,11.60
2023-05-22T00:57:00.664Z,11.07
2023-05-22T00:59:29.036Z,11.61
2023-05-22T01:01:57.290Z,11.58
2023-05-22T01:04:25.443Z,11.38
2023-05-22T01:06:53.730Z,11.21
2023-05-22T01:09:20.712Z,11.58
2023-05-22T01:12:14.640Z,11.60
2023-05-22T01:14:53.828Z,11.18
2023-05-22T01:17:46.507Z,10.16
2023-05-22T01:20:38.170Z,11.06
2023-05-22T01:23:31.467Z,11.80
2023-05-22T01:26:19.359Z,11.86
2023-05-22T01:29:09.172Z,11.90
2023-05-22T01:31:39.982Z,11.98
2023-05-22T01:34:10.603Z,11.44
2023-05-22T01:36:41.586Z,12.00
2023-05-22T01:39:09.065Z,11.58
2023-05-22T01:41:36.295Z,11.54
2023-05-22T01:44:03.763Z,11.32
2023-05-22T01:46:31.528Z,11.83
2023-05-22T01:48:59.526Z,11.67
2023-05-22T01:51:45.623Z,12.00
2023-05-22T01:54:30.658Z,12.00
2023-05-22T01:57:17.935Z,12.19
2023-05-22T01:59:46.045Z,11.50
2023-05-22T02:02:17.838Z,11.67
2023-05-22T02:04:49.807Z,12.17
2023-05-22T02:07:19.612Z,12.06
2023-05-22T02:09:49.062Z,12.26
2023-05-22T02:12:16.329Z,11.84
2023-05-22T02:14:43.882Z,12.32
2023-05-22T02:17:10.744Z,12.35
2023-05-22T02:19:38.025Z,12.36
2023-05-22T02:22:05.823Z,12.40
2023-05-22T02:24:36.999Z,12.02
2023-05-22T02:27:04.342Z,11.97
2023-05-22T02:29:31.338Z,10.33
2023-05-22T02:31:58.673Z,12.20
2023-05-22T02:34:27.015Z,12.37
2023-05-22T02:36:53.907Z,12.40
2023-05-22T02:39:20.647Z,12.06
2023-05-22T02:41:47.719Z,12.21
2023-05-22T02:44:14.725Z,11.83
2023-05-22T02:46:43.080Z,12.58
2023-05-22T02:49:10.113Z,12.66
2023-05-22T02:51:37.287Z,12.70
2023-05-22T02:54:04.155Z,12.26
2023-05-22T02:56:31.260Z,12.09
2023-05-22T02:58:58.163Z,12.87
2023-05-22T03:01:26.626Z,12.93
2023-05-22T03:03:55.092Z,12.92
2023-05-22T03:06:23.287Z,12.54
2023-05-22T03:08:50.838Z,12.30
2023-05-22T03:11:17.656Z,11.90
2023-05-22T03:13:44.842Z,13.00
2023-05-22T03:16:11.671Z,13.06
2023-05-22T03:18:43.152Z,12.99
2023-05-22T03:21:10.032Z,13.06
2023-05-22T03:23:36.828Z,13.07
2023-05-22T03:26:03.911Z,13.03
2023-05-22T03:28:34.469Z,12.94
2023-05-22T03:31:01.266Z,12.44
2023-05-22T03:33:35.216Z,13.14
2023-05-22T03:36:03.697Z,13.05
2023-05-22T03:38:30.782Z,13.37
2023-05-22T03:40:57.674Z,13.37
2023-05-22T03:43:24.548Z,13.59
2023-05-22T03:45:51.539Z,13.72
2023-05-22T03:48:18.434Z,13.82
2023-05-22T03:50:46.318Z,13.95
2023-05-22T03:53:13.151Z,14.04
2023-05-22T03:55:39.949Z,14.07
2023-05-22T03:58:07.056Z,14.05
2023-05-22T04:00:34.903Z,13.22
2023-05-22T04:03:02.260Z,13.62
2023-05-22T04:05:30.377Z,14.05
2023-05-22T04:07:57.726Z,14.36
2023-05-22T04:10:24.634Z,14.45
2023-05-22T04:12:51.646Z,14.33
2023-05-22T04:15:18.429Z,14.53
2023-05-22T04:17:45.472Z,14.60
2023-05-22T04:20:12.664Z,13.98
2023-05-22T04:22:39.541Z,14.04
2023-05-22T04:25:07.010Z,14.70
2023-05-22T04:27:34.506Z,14.94
2023-05-22T04:30:03.059Z,15.01
2023-05-22T04:32:30.167Z,14.57
2023-05-22T04:34:58.437Z,15.15
2023-05-22T04:37:26.563Z,15.18
2023-05-22T04:39:58.280Z,13.79
2023-05-22T04:42:25.503Z,15.14
2023-05-22T04:44:58.041Z,14.76
2023-05-22T04:47:24.927Z,14.93
2023-05-22T04:49:51.819Z,15.17
2023-05-22T04:52:18.742Z,14.95
2023-05-22T04:54:46.927Z,15.52
2023-05-22T04:57:14.231Z,15.16
2023-05-22T04:59:41.530Z,15.42
2023-05-22T05:02:09.692Z,15.58
2023-05-22T05:04:37.447Z,15.52
2023-05-22T05:07:06.164Z,15.09
2023-05-22T05:09:33.570Z,15.52
2023-05-22T05:12:02.799Z,15.20
2023-05-22T05:14:30.599Z,15.64
2023-05-22T05:16:58.916Z,15.82
2023-05-22T05:19:26.437Z,15.37
2023-05-22T05:21:53.678Z,15.37
2023-05-22T05:24:22.840Z,16.02
2023-05-22T05:26:51.215Z,14.92
2023-05-22T05:29:19.818Z,15.77
2023-05-22T05:31:58.629Z,16.19
2023-05-22T05:34:40.509Z,16.14
2023-05-22T05:37:19.958Z,15.99
2023-05-22T05:39:47.539Z,16.07
2023-05-22T05:42:15.106Z,16.07
2023-05-22T05:44:42.408Z,16.35
2023-05-22T05:47:09.277Z,16.49
2023-05-22T05:49:36.419Z,16.28
2023-05-22T05:52:05.282Z,16.72
2023-05-22T05:54:35.056Z,16.83
2023-05-22T05:57:06.722Z,16.65
2023-05-22T05:59:33.512Z,16.73
2023-05-22T06:02:39.568Z,16.67
2023-05-22T06:05:12.382Z,15.34
2023-05-22T06:07:40.795Z,15.98
2023-05-22T06:10:12.997Z,16.02
2023-05-22T06:12:49.941Z,17.06
2023-05-22T06:15:16.930Z,17.10
2023-05-22T06:17:43.882Z,17.13
2023-05-22T06:20:11.131Z,17.40
2023-05-22T06:22:37.949Z,17.48
2023-05-22T06:25:05.446Z,17.62
2023-05-22T06:27:33.941Z,17.69
2023-05-22T06:30:03.729Z,17.44
2023-05-22T06:32:35.749Z,18.09
2023-05-22T06:35:03.349Z,17.74
2023-05-22T06:37:33.094Z,18.21
2023-05-22T06:40:01.331Z,18.47
2023-05-22T06:42:38.543Z,18.44
2023-05-22T06:45:23.942Z,18.59
2023-05-22T06:48:11.940Z,18.85
2023-05-22T06:50:48.946Z,18.59
2023-05-22T06:53:15.935Z,17.68
2023-05-22T06:55:43.094Z,18.95
2023-05-22T06:58:18.743Z,18.64
2023-05-22T07:00:45.905Z,18.83
2023-05-22T07:03:21.391Z,18.80
2023-05-22T07:06:18.260Z,18.64
2023-05-22T07:08:45.316Z,18.70
2023-05-22T07:11:12.263Z,17.83
2023-05-22T07:13:39.876Z,18.23
2023-05-22T07:16:07.502Z,18.05
2023-05-22T07:18:35.424Z,18.86
2023-05-22T07:21:02.649Z,18.90
2023-05-22T07:23:29.979Z,19.40
2023-05-22T07:25:57.202Z,19.45
2023-05-22T07:28:30.094Z,19.37
2023-05-22T07:31:10.394Z,18.77
2023-05-22T07:33:37.444Z,19.17
2023-05-22T07:36:04.831Z,19.74
2023-05-22T07:38:32.059Z,19.67
2023-05-22T07:41:04.946Z,19.88
2023-05-22T07:43:33.630Z,19.97
2023-05-22T07:46:00.750Z,19.92
2023-05-22T07:48:33.668Z,19.92
2023-05-22T07:51:00.591Z,19.83
2023-05-22T07:53:27.387Z,19.94
2023-05-22T07:55:57.403Z,19.97
2023-05-22T07:58:25.165Z,19.55
2023-05-22T08:00:52.897Z,19.87
2023-05-22T08:03:21.052Z,19.87
2023-05-22T08:05:50.274Z,19.75
2023-05-22T08:08:17.183Z,19.84
2023-05-22T08:11:01.818Z,19.64
2023-05-22T08:13:30.660Z,19.40
2023-05-22T08:16:00.393Z,19.68
2023-05-22T08:18:29.455Z,19.67
2023-05-22T08:20:56.902Z,19.41
2023-05-22T08:23:24.230Z,19.77
2023-05-22T08:25:51.005Z,19.38
2023-05-22T08:28:17.964Z,19.89
2023-05-22T08:30:45.022Z,19.02
2023-05-22T08:33:12.546Z,19.93
2023-05-22T08:35:39.747Z,20.13
2023-05-22T08:38:06.554Z,20.15
2023-05-22T08:40:38.341Z,20.03
2023-05-22T08:43:06.507Z,20.23
2023-05-22T08:45:34.317Z,20.25
2023-05-22T08:48:06.263Z,20.63
2023-05-22T08:50:38.529Z,19.83
2023-05-22T08:53:08.236Z,20.89
2023-05-22T08:55:35.609Z,20.63
2023-05-22T08:58:04.360Z,21.11
2023-05-22T09:00:31.761Z,21.22
2023-05-22T09:02:59.711Z,21.30
2023-05-22T09:05:27.247Z,21.11
2023-05-22T09:07:56.642Z,21.40
2023-05-22T09:10:25.951Z,21.50
2023-05-22T09:13:07.905Z,21.23
2023-05-22T09:15:36.820Z,21.54
2023-05-22T09:18:05.503Z,21.25
2023-05-22T09:20:38.024Z,21.95
2023-05-22T09:23:17.755Z,22.00
2023-05-22T09:25:45.099Z,20.50
2023-05-22T09:28:12.653Z,22.07
2023-05-22T09:30:40.360Z,22.13
2023-05-22T09:33:08.860Z,22.29
2023-05-22T09:35:39.591Z,22.27
2023-05-22T09:38:06.650Z,22.39
2023-05-22T09:40:35.037Z,22.51
2023-05-22T09:43:07.348Z,22.83
2023-05-22T09:45:38.371Z,23.09
2023-05-22T09:48:06.767Z,23.25
2023-05-22T09:50:33.669Z,23.22
2023-05-22T09:53:05.071Z,23.55
2023-05-22T09:55:32.369Z,23.78
2023-05-22T09:58:03.363Z,24.46
2023-05-22T10:00:33.056Z,25.01
2023-05-22T10:03:12.136Z,22.03
2023-05-22T10:05:43.799Z,24.99
2023-05-22T10:08:14.612Z,24.79
2023-05-22T10:10:45.846Z,24.19
2023-05-22T10:13:13.232Z,24.80
2023-05-22T10:15:41.109Z,25.03
2023-05-22T10:18:08.555Z,24.86
2023-05-22T10:20:36.058Z,25.00
2023-05-22T10:23:04.061Z,25.27
2023-05-22T10:25:30.978Z,25.09
2023-05-22T10:27:59.620Z,26.02
2023-05-22T10:30:34.926Z,26.50
2023-05-22T10:33:45.012Z,26.59
2023-05-22T10:36:26.097Z,26.32
2023-05-22T10:38:55.784Z,26.70
2023-05-22T10:41:23.592Z,26.56
2023-05-22T10:43:51.282Z,27.01
2023-05-22T10:46:18.809Z,26.57
2023-05-22T10:48:47.912Z,25.60
2023-05-22T10:51:25.092Z,25.71
2023-05-22T10:53:56.985Z,26.02
2023-05-22T10:56:25.493Z,26.84
2023-05-22T10:58:57.558Z,26.27
2023-05-22T11:01:27.619Z,25.66
2023-05-22T11:04:06.871Z,25.13
2023-05-22T11:07:04.604Z,24.89
2023-05-22T11:09:50.305Z,26.38
2023-05-22T11:12:20.980Z,28.23
2023-05-22T11:15:07.685Z,30.26
2023-05-22T11:17:50.255Z,32.01
2023-05-22T11:20:28.341Z,31.62
2023-05-22T11:23:05.868Z,29.96
2023-05-22T11:25:39.503Z,29.07
2023-05-22T11:28:07.389Z,27.93
2023-05-22T11:30:34.790Z,32.84
2023-05-22T11:33:02.371Z,35.72
2023-05-22T11:35:29.688Z,35.97
2023-05-22T11:37:57.050Z,36.48
2023-05-22T11:40:27.184Z,33.81
2023-05-22T11:42:54.431Z,31.07
2023-05-22T11:45:21.855Z,29.15
2023-05-22T11:47:49.242Z,27.13
2023-05-22T11:50:22.617Z,25.74
2023-05-22T11:52:50.140Z,25.07
2023-05-22T11:55:17.642Z,24.71
2023-05-22T11:57:44.836Z,24.21
2023-05-22T12:00:12.241Z,23.92
2023-05-22T12:02:44.516Z,23.32
2023-05-22T12:05:12.002Z,23.27
2023-05-22T12:07:39.069Z,23.00
2023-05-22T12:10:07.438Z,22.84
2023-05-22T12:12:34.459Z,22.51
2023-05-22T12:15:01.491Z,22.15
2023-05-22T12:17:28.796Z,22.33
2023-05-22T12:19:55.590Z,22.19
2023-05-22T12:22:26.283Z,22.06
2023-05-22T12:24:53.190Z,21.77
2023-05-22T12:27:20.192Z,21.81
2023-05-22T12:29:47.056Z,21.76
2023-05-22T12:32:14.099Z,21.61
2023-05-22T12:34:47.557Z,21.61
2023-05-22T12:37:28.544Z,21.69
2023-05-22T12:40:00.321Z,21.57
2023-05-22T12:42:28.472Z,21.74
2023-05-22T12:44:57.195Z,21.73
2023-05-22T12:47:24.955Z,21.67
2023-05-22T12:49:52.492Z,21.65
2023-05-22T12:52:19.672Z,21.39
2023-05-22T12:54:46.583Z,20.81
2023-05-22T12:57:13.506Z,21.56
2023-05-22T12:59:40.725Z,20.27
2023-05-22T13:02:07.970Z,20.88
2023-05-22T13:04:35.261Z,21.31
2023-05-22T13:07:02.245Z,21.43
2023-05-22T13:09:29.077Z,20.26
2023-05-22T13:11:56.785Z,21.32
2023-05-22T13:14:23.803Z,21.29
2023-05-22T13:16:50.656Z,21.11
2023-05-22T13:19:17.487Z,21.29
2023-05-22T13:21:44.484Z,21.12
2023-05-22T13:24:11.401Z,21.16
2023-05-22T13:26:38.445Z,21.29
2023-05-22T13:29:05.308Z,21.16
2023-05-22T13:31:37.471Z,21.16
2023-05-22T13:34:05.157Z,20.96
2023-05-22T13:36:32.343Z,20.38
2023-05-22T13:38:59.284Z,21.22
2023-05-22T13:41:27.000Z,21.54
2023-05-22T13:43:54.111Z,21.37
2023-05-22T13:46:22.464Z,21.69
2023-05-22T13:48:49.576Z,21.76
2023-05-22T13:51:16.447Z,22.06
2023-05-22T13:53:43.471Z,22.60
2023-05-22T13:56:11.105Z,23.43
2023-05-22T13:58:38.308Z,23.02
2023-05-22T14:01:05.415Z,23.26
2023-05-22T14:03:32.293Z,24.22
2023-05-22T14:05:59.156Z,24.39
2023-05-22T14:08:26.276Z,24.42
2023-05-22T14:10:53.260Z,24.32
2023-05-22T14:13:20.435Z,24.34
2023-05-22T14:15:48.404Z,23.95
2023-05-22T14:18:16.722Z,23.31
2023-05-22T14:20:44.862Z,22.93
2023-05-22T14:23:12.849Z,23.05
2023-05-22T14:25:42.983Z,22.27
2023-05-22T14:28:10.945Z,22.74
2023-05-22T14:30:38.116Z,21.95
2023-05-22T14:33:05.533Z,22.00
2023-05-22T14:35:32.522Z,22.39
2023-05-22T14:37:59.300Z,22.67
2023-05-22T14:40:26.077Z,22.50
2023-05-22T14:42:54.293Z,22.57
2023-05-22T14:45:21.492Z,22.22
2023-05-22T14:47:48.413Z,22.63
2023-05-22T14:50:19.712Z,21.99
2023-05-22T14:52:48.888Z,22.43
2023-05-22T14:55:18.619Z,22.58
2023-05-22T14:57:45.502Z,22.41
2023-05-22T15:00:15.233Z,22.42
2023-05-22T15:02:41.920Z,22.36
2023-05-22T15:05:09.799Z,22.25
2023-05-22T15:10:10.714Z,22.20
2023-05-22T15:12:37.633Z,22.21
2023-05-22T15:15:08.327Z,21.78
2023-05-22T15:17:35.311Z,21.95
2023-05-22T15:20:02.175Z,21.11
2023-05-22T15:22:29.002Z,21.70
2023-05-22T15:25:12.225Z,21.59
2023-05-22T15:27:39.703Z,21.53
2023-05-22T15:30:09.601Z,21.11
2023-05-22T15:32:37.399Z,21.64
2023-05-22T15:35:05.732Z,21.67
2023-05-22T15:37:33.876Z,21.52
2023-05-22T15:40:02.107Z,21.45
2023-05-22T15:42:29.111Z,21.65
2023-05-22T15:44:58.636Z,21.09
2023-05-22T15:47:25.477Z,21.75
2023-05-22T15:49:52.686Z,21.90
2023-05-22T15:52:21.033Z,21.67
2023-05-22T15:54:47.832Z,21.76
2023-05-22T15:57:14.719Z,21.40
2023-05-22T15:59:41.712Z,21.56
2023-05-22T16:02:08.564Z,21.51
2023-05-22T16:04:35.560Z,20.80
2023-05-22T16:07:02.457Z,21.55
2023-05-22T16:09:31.365Z,21.62
2023-05-22T16:12:02.541Z,21.17
2023-05-22T16:14:30.133Z,21.54
2023-05-22T16:16:56.931Z,20.48
2023-05-22T16:19:24.191Z,21.37
2023-05-22T16:21:53.333Z,21.66
2023-05-22T16:24:20.287Z,21.36
2023-05-22T16:26:47.166Z,21.56
2023-05-22T16:29:14.159Z,21.60
2023-05-22T16:31:42.250Z,21.80
2023-05-22T16:34:09.022Z,21.82
2023-05-22T16:36:36.106Z,21.03
2023-05-22T16:39:03.428Z,21.67
2023-05-22T16:41:30.459Z,21.01
2023-05-22T16:43:57.438Z,21.50
2023-05-22T16:46:24.521Z,21.39
2023-05-22T16:48:51.870Z,21.37
2023-05-22T16:51:18.727Z,21.00
2023-05-22T16:53:46.800Z,20.84
2023-05-22T16:56:14.563Z,21.12
2023-05-22T16:58:41.393Z,20.49
2023-05-22T17:01:08.791Z,20.89
2023-05-22T17:03:36.060Z,20.64
2023-05-22T17:06:03.272Z,20.54
2023-05-22T17:08:30.211Z,20.29
2023-05-22T17:10:57.066Z,20.34
2023-05-22T17:13:23.918Z,20.24
2023-05-22T17:15:51.452Z,19.10
2023-05-22T17:18:20.806Z,20.06
2023-05-22T17:20:49.383Z,19.97
2023-05-22T17:23:16.886Z,19.74
2023-05-22T17:25:46.517Z,19.63
2023-05-22T17:28:14.640Z,19.67
2023-05-22T17:30:42.759Z,19.59
2023-05-22T17:33:11.004Z,19.09
2023-05-22T17:35:38.056Z,19.38
2023-05-22T17:38:04.930Z,18.26
2023-05-22T17:40:44.111Z,19.03
2023-05-22T17:43:13.359Z,19.10
2023-05-22T17:45:40.378Z,19.03
2023-05-22T17:48:08.168Z,18.60
2023-05-22T17:50:35.394Z,18.88
2023-05-22T17:53:02.284Z,18.68
2023-05-22T17:55:29.195Z,18.48
2023-05-22T17:57:56.352Z,18.63
2023-05-22T18:00:23.539Z,18.58
2023-05-22T18:02:50.722Z,18.43
2023-05-22T18:05:17.814Z,18.15
2023-05-22T18:07:44.649Z,18.38
2023-05-22T18:10:11.735Z,18.28
2023-05-22T18:12:38.771Z,18.25
2023-05-22T18:15:08.623Z,18.20
2023-05-22T18:17:35.667Z,18.15
2023-05-22T18:20:03.884Z,18.11
2023-05-22T18:22:31.095Z,18.00
2023-05-22T18:24:58.055Z,17.93
2023-05-22T18:27:25.609Z,17.71
2023-05-22T18:29:52.513Z,17.82
2023-05-22T18:32:19.334Z,17.48
2023-05-22T18:34:46.586Z,17.65
2023-05-22T18:37:14.038Z,17.60
2023-05-22T18:39:41.065Z,17.57
2023-05-22T18:42:08.126Z,16.73
2023-05-22T18:44:35.140Z,16.85
2023-05-22T18:47:02.222Z,17.20
2023-05-22T18:49:29.136Z,16.88
2023-05-22T18:51:55.982Z,17.09
2023-05-22T18:54:23.081Z,17.25
2023-05-22T18:56:50.758Z,17.24
2023-05-22T18:59:17.598Z,17.06
2023-05-22T19:01:45.532Z,17.19
2023-05-22T19:04:12.441Z,17.00
2023-05-22T19:06:42.124Z,16.96
2023-05-22T19:09:12.659Z,16.92
2023-05-22T19:11:39.857Z,16.82
2023-05-22T19:14:06.991Z,17.14
2023-05-22T19:16:34.029Z,16.99
2023-05-22T19:19:01.068Z,17.10
2023-05-22T19:21:28.090Z,16.73
2023-05-22T19:23:54.910Z,16.98
2023-05-22T19:26:21.828Z,17.03
2023-05-22T19:28:48.601Z,16.90
2023-05-22T19:31:17.298Z,16.96
2023-05-22T19:33:44.778Z,16.67
2023-05-22T19:36:11.541Z,16.92
2023-05-22T19:38:38.411Z,16.35
2023-05-22T19:41:05.319Z,16.22
2023-05-22T19:43:32.251Z,16.68
2023-05-22T19:45:59.183Z,16.69
2023-05-22T19:48:26.991Z,16.22
2023-05-22T19:50:54.103Z,16.51
2023-05-22T19:53:21.297Z,16.11
2023-05-22T19:55:48.809Z,16.63
2023-05-22T19:58:15.653Z,16.62
2023-05-22T20:00:42.841Z,16.01
2023-05-22T20:03:09.988Z,16.60
2023-05-22T20:05:37.200Z,16.27
2023-05-22T20:08:04.149Z,16.42
2023-05-22T20:10:32.332Z,16.40
2023-05-22T20:13:00.328Z,16.16
2023-05-22T20:15:27.394Z,16.14
2023-05-22T20:17:54.477Z,16.48
2023-05-22T20:20:23.953Z,16.43
2023-05-22T20:22:52.838Z,16.40
2023-05-22T20:25:21.342Z,16.26
2023-05-22T20:27:48.123Z,16.30
2023-05-22T20:30:15.796Z,16.28
2023-05-22T20:32:45.521Z,16.25
2023-05-22T20:35:13.121Z,15.91
2023-05-22T20:37:41.639Z,16.15
2023-05-22T20:40:09.645Z,15.45
2023-05-22T20:42:37.677Z,15.96
2023-05-22T20:45:08.267Z,15.81
2023-05-22T20:47:36.168Z,16.01
2023-05-22T20:50:03.061Z,15.38
2023-05-22T20:52:30.480Z,16.09
2023-05-22T20:54:58.312Z,16.03
2023-05-22T20:57:25.610Z,15.54
2023-05-22T20:59:54.231Z,15.45
2023-05-22T21:02:21.143Z,15.86
2023-05-22T21:09:19.055Z,15.86
2023-05-22T21:11:45.967Z,15.80
2023-05-22T21:14:12.858Z,15.70
2023-05-22T21:16:40.313Z,15.47
2023-05-22T21:19:07.627Z,15.74
2023-05-22T21:21:36.220Z,15.74
2023-05-22T21:24:03.349Z,15.74
2023-05-22T21:26:30.374Z,15.74
2023-05-22T21:28:57.354Z,14.88
2023-05-22T21:31:24.184Z,15.51
2023-05-22T21:33:51.139Z,14.75
2023-05-22T21:36:17.944Z,13.53
2023-05-22T21:38:45.379Z,15.45
2023-05-22T21:41:13.293Z,14.87
2023-05-22T21:43:40.318Z,14.53
2023-05-22T21:46:07.380Z,14.75
2023-05-22T21:48:34.215Z,15.56
2023-05-22T21:51:01.093Z,15.22
2023-05-22T21:53:28.044Z,15.53
2023-05-22T21:55:54.993Z,15.52
2023-05-22T21:58:22.056Z,15.51
2023-05-22T22:00:48.853Z,15.51
2023-05-22T22:03:15.872Z,14.28
2023-05-22T22:05:42.882Z,15.48
2023-05-22T22:08:09.958Z,15.46
2023-05-22T22:10:36.899Z,15.43
2023-05-22T22:13:03.761Z,15.26
2023-05-22T22:15:32.140Z,15.28
2023-05-22T22:18:02.231Z,15.18
2023-05-22T22:20:44.071Z,15.30
2023-05-22T22:23:12.725Z,15.28
2023-05-22T22:25:39.735Z,15.26
2023-05-22T22:28:07.404Z,15.06
2023-05-22T22:30:35.554Z,15.20
2023-05-22T22:33:02.618Z,15.20
2023-05-22T22:35:29.602Z,15.19
2023-05-22T22:37:56.546Z,15.17
2023-05-22T22:40:25.325Z,15.19
2023-05-22T22:42:53.333Z,15.20
2023-05-22T22:45:20.312Z,15.05
2023-05-22T22:47:47.461Z,15.19
2023-05-22T22:50:14.350Z,14.82
2023-05-22T22:52:45.533Z,14.64
2023-05-22T22:55:13.465Z,15.01
2023-05-22T22:57:43.331Z,14.67
2023-05-22T23:00:13.415Z,14.59
2023-05-22T23:02:40.733Z,14.50
2023-05-22T23:05:08.264Z,14.27
2023-05-22T23:07:35.736Z,13.07
2023-05-22T23:10:02.674Z,14.50
2023-05-22T23:12:29.589Z,14.20
2023-05-22T23:14:56.558Z,14.62
2023-05-22T23:17:23.277Z,14.59
2023-05-22T23:19:50.045Z,14.54
2023-05-22T23:22:18.943Z,14.47
2023-05-22T23:24:45.906Z,14.43
2023-05-22T23:27:12.787Z,14.25
2023-05-22T23:29:40.521Z,13.78
2023-05-22T23:32:07.451Z,13.17
2023-05-22T23:34:34.387Z,14.36
2023-05-22T23:37:01.287Z,13.99
2023-05-22T23:39:28.090Z,13.60
2023-05-22T23:41:54.901Z,13.78
2023-05-22T23:44:21.856Z,14.15
2023-05-22T23:46:50.141Z,13.54
2023-05-22T23:49:16.920Z,14.09
2023-05-22T23:51:43.689Z,14.02
2023-05-22T23:54:11.297Z,13.29
2023-05-22T23:56:38.098Z,13.87
2023-05-22T23:59:04.842Z,13.93
